Dies, Texas
Current Conditions -  °F | °C
As of 5:15 AM on Sunday 23 Nov 2014 (Local Time) from KJAS Reporting Station
Broken Clouds Broken Clouds  
Wind Chill: 59°   Ceiling: 11000
Heat Index: 59°   Visibility: 10mi
Dew Point: 58°   Wind: 5mph
Humidity: 96%   Direction: 60°ENE
Pressure: 29.61"   Gusts: NA
Location:  30.7643°N, 94.4448°W
Report Text: KJAS 231115Z AUTO 06004KT 10SM SCT032 SCT080 BKN110 15/15 A2961 RMK AO2 T01510145
Loading
Personal Weather Stations






























Interactive Weather Map New forecast layout! Learn more

10-Day Weather Forecast

Advertisements
Track Severe Weather on mobile